Time;durP1;ratioP1;P1;durP2;ratioP2;P2;SDS_P1;SDS_P2;PMS_P1;PMS_P2;Temp;Humidity;BMP_temperature;BMP_pressure;BME280_temperature;BME280_humidity;BME280_pressure;Samples;Min_cycle;Max_cycle;Signal;HPM_P1;HPM_P2
2023/07/27 00:02:17;;;;;;;1.57;1.47;;;23.40;45.20;;;;;;4972619;28;20270;-61
2023/07/27 00:04:43;;;;;;;1.30;1.20;;;23.40;45.20;;;;;;4978645;28;20579;-61
2023/07/27 00:07:08;;;;;;;1.40;1.30;;;23.40;45.20;;;;;;4975166;28;20228;-61
2023/07/27 00:09:34;;;;;;;1.20;1.10;;;23.30;45.20;;;;;;4973773;28;20246;-62
2023/07/27 00:11:59;;;;;;;1.50;1.40;;;23.40;45.20;;;;;;4977902;28;20216;-61
2023/07/27 00:14:25;;;;;;;1.40;1.30;;;23.40;45.20;;;;;;4978000;28;20221;-61
2023/07/27 00:16:50;;;;;;;1.47;1.37;;;23.40;45.20;;;;;;4980244;28;20251;-61
2023/07/27 00:19:16;;;;;;;1.43;1.33;;;23.30;45.20;;;;;;4976822;28;20222;-62
2023/07/27 00:21:42;;;;;;;1.43;1.33;;;23.40;45.20;;;;;;4976999;28;20224;-61
2023/07/27 00:24:07;;;;;;;1.30;1.20;;;23.30;45.20;;;;;;4975736;28;20248;-62
2023/07/27 00:26:33;;;;;;;1.20;1.10;;;23.40;45.30;;;;;;4974896;28;20569;-62
2023/07/27 00:28:58;;;;;;;1.60;1.50;;;23.40;45.20;;;;;;4976064;28;20703;-61
2023/07/27 00:31:24;;;;;;;1.20;1.10;;;23.30;45.20;;;;;;4986134;28;20306;-61
2023/07/27 00:33:49;;;;;;;1.33;1.23;;;23.30;45.20;;;;;;5019412;28;20234;-61
2023/07/27 00:36:15;;;;;;;1.50;1.40;;;23.30;45.20;;;;;;4975846;28;20231;-61
2023/07/27 00:38:40;;;;;;;1.93;1.20;;;23.30;45.20;;;;;;4984881;28;20239;-62
2023/07/27 00:41:07;;;;;;;1.20;1.10;;;23.30;45.20;;;;;;4985584;28;20224;-62
2023/07/27 00:43:33;;;;;;;1.40;1.30;;;23.30;45.20;;;;;;4985889;28;20303;-61
2023/07/27 00:45:59;;;;;;;1.50;1.40;;;23.30;44.50;;;;;;4980780;28;20464;-61
2023/07/27 00:48:24;;;;;;;1.40;1.30;;;23.30;46.60;;;;;;4989390;28;20688;-62
2023/07/27 00:50:51;;;;;;;1.30;1.20;;;23.30;47.60;;;;;;4978000;28;20859;-61
2023/07/27 00:53:17;;;;;;;1.50;1.40;;;23.30;49.40;;;;;;4978430;28;20246;-61
2023/07/27 00:55:43;;;;;;;1.60;1.50;;;23.30;50.70;;;;;;4984579;28;20453;-61
2023/07/27 00:58:09;;;;;;;1.47;1.37;;;23.30;52.50;;;;;;4998380;28;20688;-61
2023/07/27 01:00:35;;;;;;;1.43;1.33;;;23.30;57.70;;;;;;4993641;28;20458;-61
2023/07/27 01:03:03;;;;;;;1.30;1.20;;;23.30;45.20;;;;;;4996286;28;20457;-61
2023/07/27 01:05:28;;;;;;;1.40;1.30;;;23.30;45.20;;;;;;4993480;28;20452;-61
2023/07/27 01:07:54;;;;;;;1.50;1.40;;;23.30;45.20;;;;;;4995789;28;20848;-62
2023/07/27 01:10:30;;;;;;;1.20;1.10;;;23.30;45.20;;;;;;5017730;28;20239;-60
2023/07/27 01:13:07;;;;;;;1.70;1.20;;;23.30;45.20;;;;;;4983603;28;20227;-61
2023/07/27 01:15:40;;;;;;;1.37;1.27;;;23.30;46.00;;;;;;4989106;28;20802;-62
2023/07/27 01:18:18;;;;;;;1.33;1.23;;;23.30;45.20;;;;;;4995832;28;20526;-62
2023/07/27 01:21:15;;;;;;;1.50;1.40;;;23.30;45.20;;;;;;4975948;28;20465;-61
2023/07/27 01:24:16;;;;;;;1.40;1.30;;;23.30;45.20;;;;;;4995361;28;20971;-62
2023/07/27 01:31:44;;;;;;;1.47;1.37;;;23.30;45.30;;;;;;4964839;28;1031287;-61
2023/07/27 01:34:18;;;;;;;1.37;1.27;;;23.30;45.20;;;;;;5053469;22;20295;-76
2023/07/27 01:36:47;;;;;;;1.37;1.27;;;23.30;45.30;;;;;;5041750;28;20512;-76
2023/07/27 01:39:17;;;;;;;1.20;1.10;;;23.30;45.30;;;;;;5055020;28;21371;-76
2023/07/27 01:41:43;;;;;;;1.30;1.20;;;23.30;45.20;;;;;;5057762;28;20463;-77
2023/07/27 01:44:10;;;;;;;1.30;1.20;;;23.30;45.30;;;;;;5060623;28;20449;-77
2023/07/27 01:46:37;;;;;;;1.50;1.40;;;23.30;45.30;;;;;;5058289;28;20449;-75
2023/07/27 01:49:04;;;;;;;1.37;1.27;;;23.30;47.50;;;;;;5055938;28;20961;-75
2023/07/27 01:51:31;;;;;;;1.40;1.30;;;23.30;50.40;;;;;;5061588;28;20944;-76
2023/07/27 01:53:57;;;;;;;1.27;1.17;;;23.30;51.80;;;;;;5055376;28;20467;-76
2023/07/27 01:56:25;;;;;;;1.37;1.27;;;23.30;48.10;;;;;;5055863;28;20439;-77
2023/07/27 01:58:52;;;;;;;1.30;1.20;;;23.30;45.20;;;;;;5058123;28;20450;-76
2023/07/27 02:01:18;;;;;;;1.47;1.37;;;23.30;45.20;;;;;;5056121;28;20490;-76
2023/07/27 02:03:45;;;;;;;1.37;1.27;;;23.30;45.20;;;;;;5054564;28;20450;-76
2023/07/27 02:06:10;;;;;;;1.33;1.23;;;23.40;45.30;;;;;;5057445;28;21087;-75
2023/07/27 02:08:36;;;;;;;1.00;1.00;;;23.30;45.20;;;;;;5059218;28;20451;-77
2023/07/27 02:11:05;;;;;;;1.30;1.20;;;23.30;45.20;;;;;;5053683;28;20217;-75
2023/07/27 02:14:03;;;;;;;1.30;1.20;;;23.30;45.30;;;;;;5057430;28;20221;-77
2023/07/27 02:16:36;;;;;;;1.43;1.33;;;23.30;45.20;;;;;;5047417;28;20451;-76
2023/07/27 02:19:03;;;;;;;1.20;1.10;;;23.30;45.20;;;;;;5057839;28;20461;-77
2023/07/27 02:21:31;;;;;;;1.50;1.40;;;23.30;45.20;;;;;;5057420;28;20449;-77
2023/07/27 02:23:59;;;;;;;1.43;1.33;;;23.30;45.20;;;;;;5060743;28;20455;-76
2023/07/27 02:26:24;;;;;;;1.30;1.20;;;23.30;45.20;;;;;;5055318;28;20485;-77
2023/07/27 02:28:50;;;;;;;1.40;1.30;;;23.30;45.20;;;;;;5055984;28;20439;-77
2023/07/27 02:31:15;;;;;;;1.40;1.30;;;23.30;45.30;;;;;;5054683;28;20217;-77
2023/07/27 02:33:41;;;;;;;1.20;1.10;;;23.30;45.20;;;;;;5053844;28;20234;-75
2023/07/27 02:36:06;;;;;;;1.20;1.10;;;23.30;45.20;;;;;;5060349;28;20267;-76
2023/07/27 02:38:32;;;;;;;1.03;1.00;;;23.30;45.30;;;;;;5055453;28;20271;-76
2023/07/27 02:40:57;;;;;;;1.27;1.17;;;23.30;45.30;;;;;;5057186;28;20669;-76
2023/07/27 02:43:23;;;;;;;1.60;1.50;;;;;;;;;;5056825;28;20224;-76
2023/07/27 02:45:49;;;;;;;1.40;1.30;;;23.30;44.40;;;;;;5057534;28;20798;-77
2023/07/27 02:48:14;;;;;;;1.20;1.10;;;23.30;45.10;;;;;;5057093;28;20225;-77
2023/07/27 02:50:49;;;;;;;1.50;1.40;;;23.30;45.10;;;;;;5055280;28;20250;-77
2023/07/27 02:53:15;;;;;;;1.43;1.00;;;23.30;45.10;;;;;;5055808;28;20222;-77
2023/07/27 02:55:40;;;;;;;1.40;1.30;;;23.30;45.10;;;;;;5054504;28;20461;-77
2023/07/27 02:58:06;;;;;;;1.40;1.30;;;23.30;45.10;;;;;;5058234;28;20245;-76
2023/07/27 03:00:31;;;;;;;1.10;1.00;;;23.30;45.10;;;;;;5053255;28;20217;-77
2023/07/27 03:02:57;;;;;;;1.70;1.60;;;23.30;45.10;;;;;;5055763;28;20214;-77
2023/07/27 03:05:22;;;;;;;4.97;1.20;;;23.30;45.10;;;;;;5055391;28;20221;-77
2023/07/27 03:07:48;;;;;;;1.47;1.37;;;23.30;45.10;;;;;;5058735;28;20217;-77
2023/07/27 03:10:13;;;;;;;1.37;1.27;;;23.30;45.10;;;;;;5058421;28;20229;-77
2023/07/27 03:12:39;;;;;;;4.40;1.23;;;23.30;45.10;;;;;;5054555;28;20224;-77
2023/07/27 03:15:05;;;;;;;3.10;1.40;;;23.30;45.10;;;;;;5055582;28;20570;-77
2023/07/27 03:17:30;;;;;;;1.30;1.20;;;23.30;45.20;;;;;;5054772;28;20305;-77
2023/07/27 03:19:56;;;;;;;1.20;1.10;;;23.30;45.20;;;;;;5060378;28;20820;-76
2023/07/27 03:22:21;;;;;;;1.30;1.20;;;23.30;45.20;;;;;;5055988;28;22430;-76
2023/07/27 03:24:47;;;;;;;1.20;1.10;;;23.30;45.20;;;;;;5052899;28;20225;-77
2023/07/27 03:27:12;;;;;;;1.17;1.07;;;23.30;45.20;;;;;;5054040;28;20222;-77
2023/07/27 03:29:38;;;;;;;1.80;1.20;;;23.30;45.20;;;;;;5053834;28;20249;-77
2023/07/27 03:32:04;;;;;;;1.30;1.20;;;23.30;45.20;;;;;;5057341;28;20279;-76
2023/07/27 03:34:29;;;;;;;1.20;1.10;;;23.30;45.20;;;;;;5052868;28;20241;-77
2023/07/27 03:36:55;;;;;;;1.30;1.20;;;23.30;45.30;;;;;;5055106;28;20625;-77
2023/07/27 03:39:20;;;;;;;1.20;1.10;;;23.30;45.30;;;;;;5055157;28;20254;-77
2023/07/27 03:41:46;;;;;;;1.30;1.20;;;23.30;45.30;;;;;;5057523;28;20225;-77
2023/07/27 03:44:13;;;;;;;1.27;1.17;;;23.30;45.30;;;;;;5056701;28;20687;-76
2023/07/27 03:46:38;;;;;;;1.40;1.30;;;23.30;45.30;;;;;;5054702;28;20639;-77
2023/07/27 03:49:04;;;;;;;1.23;1.13;;;23.30;45.30;;;;;;5055305;28;20531;-77
2023/07/27 03:51:29;;;;;;;1.50;1.40;;;23.30;45.30;;;;;;5053183;28;20233;-77
2023/07/27 03:53:55;;;;;;;1.30;1.20;;;23.30;45.30;;;;;;5056041;28;20284;-77
2023/07/27 03:56:20;;;;;;;1.30;1.20;;;23.30;45.30;;;;;;5055896;28;20252;-78
2023/07/27 03:58:46;;;;;;;1.40;1.30;;;23.30;45.40;;;;;;5054270;28;20452;-77
2023/07/27 04:01:11;;;;;;;1.37;1.27;;;23.30;45.40;;;;;;5051709;28;20636;-77
2023/07/27 04:03:37;;;;;;;1.40;1.30;;;23.30;45.40;;;;;;5059094;28;20213;-77
2023/07/27 04:06:02;;;;;;;1.33;1.20;;;23.30;45.40;;;;;;5054234;28;20236;-78
2023/07/27 04:08:28;;;;;;;1.20;1.10;;;23.30;45.40;;;;;;5057586;28;20374;-78
2023/07/27 04:10:53;;;;;;;1.20;1.10;;;23.30;45.40;;;;;;5055286;28;20238;-78
2023/07/27 04:13:19;;;;;;;1.50;1.40;;;23.30;45.40;;;;;;5059974;28;20590;-78
2023/07/27 04:15:44;;;;;;;1.20;1.10;;;23.30;45.40;;;;;;5057829;28;20225;-78
2023/07/27 04:18:10;;;;;;;1.33;1.23;;;23.30;45.50;;;;;;5053578;28;20265;-79
2023/07/27 04:20:35;;;;;;;1.20;1.10;;;23.30;45.50;;;;;;5054767;28;20721;-79
2023/07/27 04:23:01;;;;;;;1.00;1.00;;;23.30;45.50;;;;;;5058413;28;20326;-79
2023/07/27 04:25:26;;;;;;;1.20;1.13;;;23.30;45.50;;;;;;5052616;28;20216;-79
2023/07/27 04:27:52;;;;;;;1.30;1.20;;;23.30;45.50;;;;;;5059315;28;20225;-78
2023/07/27 04:30:18;;;;;;;1.37;1.27;;;23.30;45.60;;;;;;5053009;28;20233;-79
2023/07/27 04:32:44;;;;;;;1.20;1.10;;;23.30;45.60;;;;;;5055973;28;20624;-78
2023/07/27 04:35:10;;;;;;;1.23;1.13;;;23.30;45.60;;;;;;5056226;28;20961;-79
2023/07/27 04:37:35;;;;;;;1.50;1.40;;;23.30;45.60;;;;;;5060585;28;20268;-78
2023/07/27 04:40:01;;;;;;;1.30;1.20;;;23.30;45.60;;;;;;5056199;28;20795;-79
2023/07/27 04:42:26;;;;;;;1.40;1.30;;;23.30;45.60;;;;;;5055390;28;20685;-79
2023/07/27 04:44:52;;;;;;;1.40;1.30;;;23.30;45.60;;;;;;5053943;28;20254;-79
2023/07/27 04:47:18;;;;;;;1.23;1.13;;;23.30;45.60;;;;;;5055864;28;20681;-79
2023/07/27 04:49:44;;;;;;;1.10;1.00;;;23.30;45.50;;;;;;5052906;28;20218;-79
2023/07/27 04:52:09;;;;;;;1.33;1.23;;;23.30;45.50;;;;;;5058117;28;20228;-78
2023/07/27 04:54:37;;;;;;;1.30;1.20;;;23.30;45.50;;;;;;5058752;28;20960;-79
2023/07/27 04:57:03;;;;;;;1.20;1.10;;;23.30;46.30;;;;;;5058659;28;20749;-79
2023/07/27 04:59:29;;;;;;;1.40;1.30;;;23.30;45.50;;;;;;5054621;28;20458;-78
2023/07/27 05:01:54;;;;;;;1.37;1.27;;;23.30;45.50;;;;;;5057255;28;20225;-79
2023/07/27 05:04:20;;;;;;;1.43;1.33;;;23.40;45.60;;;;;;5057126;28;20206;-79
2023/07/27 05:06:45;;;;;;;2.00;1.23;;;23.30;45.50;;;;;;5058982;28;20259;-79
2023/07/27 05:09:11;;;;;;;1.33;1.23;;;23.30;45.50;;;;;;5057375;28;20232;-79
2023/07/27 05:11:36;;;;;;;1.40;1.30;;;23.30;45.50;;;;;;5060255;28;20224;-79
2023/07/27 05:14:02;;;;;;;1.20;1.10;;;23.40;45.60;;;;;;5061749;28;20217;-79
2023/07/27 05:16:27;;;;;;;1.33;1.23;;;23.30;45.50;;;;;;5057856;28;20225;-79
2023/07/27 05:18:53;;;;;;;1.20;1.10;;;23.30;45.40;;;;;;5062680;28;20222;-80
2023/07/27 05:21:18;;;;;;;1.50;1.20;;;23.30;45.40;;;;;;5061089;28;20221;-80
2023/07/27 05:23:44;;;;;;;1.50;1.40;;;23.40;45.60;;;;;;5058680;28;20214;-80
2023/07/27 05:26:10;;;;;;;1.50;1.23;;;23.40;45.60;;;;;;5057534;28;20218;-79
2023/07/27 05:28:35;;;;;;;1.33;1.23;;;23.40;45.60;;;;;;5064548;28;20259;-79
2023/07/27 05:31:01;;;;;;;1.30;1.20;;;23.40;45.60;;;;;;5054914;28;20584;-80
2023/07/27 05:33:26;;;;;;;2.23;1.50;;;23.40;45.50;;;;;;5058282;28;20291;-80
2023/07/27 05:35:52;;;;;;;1.43;1.33;;;23.40;45.60;;;;;;5059444;28;20217;-79
2023/07/27 05:38:18;;;;;;;1.30;1.20;;;23.40;45.50;;;;;;5060990;28;20329;-79
2023/07/27 05:40:43;;;;;;;1.30;1.20;;;23.40;45.50;;;;;;5057748;28;20268;-80
2023/07/27 05:43:09;;;;;;;1.30;1.20;;;23.40;45.50;;;;;;5062375;28;20217;-79
2023/07/27 05:45:37;;;;;;;1.40;1.20;;;23.40;45.50;;;;;;5055306;28;20225;-79
2023/07/27 05:48:04;;;;;;;1.40;1.30;;;23.40;45.50;;;;;;5057719;28;20690;-79
2023/07/27 05:50:29;;;;;;;1.57;1.47;;;23.40;45.50;;;;;;5055490;28;20470;-80
2023/07/27 05:52:55;;;;;;;1.33;1.23;;;23.40;45.80;;;;;;5058265;28;21018;-79
2023/07/27 05:55:20;;;;;;;1.87;1.30;;;23.40;45.50;;;;;;5056958;28;20221;-79
2023/07/27 05:57:46;;;;;;;1.47;1.37;;;23.40;45.40;;;;;;5060976;28;20643;-79
2023/07/27 06:00:12;;;;;;;1.30;1.20;;;23.40;45.50;;;;;;5060370;28;20221;-79
2023/07/27 06:02:37;;;;;;;1.20;1.10;;;23.40;45.50;;;;;;5058810;28;20231;-80
2023/07/27 06:05:03;;;;;;;1.30;1.20;;;23.40;46.20;;;;;;5056026;28;20223;-79
2023/07/27 06:07:28;;;;;;;1.20;1.10;;;23.40;45.40;;;;;;5059141;28;22478;-79
2023/07/27 06:09:54;;;;;;;1.20;1.10;;;23.40;45.40;;;;;;5053324;28;20708;-80
2023/07/27 06:12:19;;;;;;;1.00;1.00;;;23.40;45.40;;;;;;5063344;28;20225;-80
2023/07/27 06:14:45;;;;;;;1.40;1.30;;;23.40;45.40;;;;;;5055756;28;20225;-80
2023/07/27 06:17:11;;;;;;;1.30;1.20;;;23.40;45.50;;;;;;5056765;28;20218;-79
2023/07/27 06:19:36;;;;;;;1.13;1.03;;;23.40;46.20;;;;;;5055255;28;20708;-80
2023/07/27 06:22:02;;;;;;;1.43;1.33;;;23.40;45.40;;;;;;5057723;28;20564;-80
2023/07/27 06:24:27;;;;;;;1.20;1.10;;;23.40;45.40;;;;;;5060147;28;20217;-80
2023/07/27 06:26:53;;;;;;;1.30;1.20;;;23.40;45.30;;;;;;5057491;28;20696;-79
2023/07/27 06:29:19;;;;;;;1.30;1.10;;;23.40;45.40;;;;;;5056179;28;21042;-80
2023/07/27 06:31:44;;;;;;;1.40;1.30;;;23.40;45.30;;;;;;5056834;28;20225;-80
2023/07/27 06:34:10;;;;;;;1.30;1.20;;;23.40;45.30;;;;;;5058484;28;20238;-79
2023/07/27 06:36:35;;;;;;;1.20;1.10;;;23.40;45.40;;;;;;5059334;28;20241;-80
2023/07/27 06:39:01;;;;;;;1.20;1.10;;;23.40;45.30;;;;;;5055132;28;20213;-80
2023/07/27 06:41:27;;;;;;;1.37;1.27;;;23.40;45.40;;;;;;5054083;28;20214;-80
2023/07/27 06:43:52;;;;;;;1.20;1.10;;;23.40;46.10;;;;;;5060280;28;20214;-80
2023/07/27 06:46:19;;;;;;;1.30;1.20;;;23.40;45.30;;;;;;5056772;28;20232;-80
2023/07/27 06:48:48;;;;;;;1.30;1.20;;;23.40;45.30;;;;;;5054453;28;20221;-79
2023/07/27 06:51:14;;;;;;;1.30;1.20;;;23.40;45.30;;;;;;5057393;28;21422;-80
2023/07/27 06:53:39;;;;;;;1.27;1.17;;;23.40;45.30;;;;;;5062230;28;20435;-79
2023/07/27 06:56:05;;;;;;;1.23;1.13;;;23.40;45.30;;;;;;5057890;28;20213;-80
2023/07/27 06:58:31;;;;;;;1.30;1.20;;;23.40;45.30;;;;;;5058096;28;20325;-80
2023/07/27 07:00:57;;;;;;;1.33;1.23;;;23.40;45.30;;;;;;5055559;28;20988;-80
2023/07/27 07:03:22;;;;;;;1.20;1.10;;;23.40;45.30;;;;;;5056544;28;20225;-80
2023/07/27 07:05:48;;;;;;;1.30;1.20;;;23.40;45.30;;;;;;5056119;28;20229;-80
2023/07/27 07:08:14;;;;;;;1.20;1.10;;;23.40;45.30;;;;;;5056529;28;20732;-79
2023/07/27 07:10:39;;;;;;;1.00;1.00;;;23.40;45.30;;;;;;5069036;28;20706;-80
2023/07/27 07:13:05;;;;;;;1.30;1.20;;;23.40;45.30;;;;;;5062789;28;20739;-80
2023/07/27 07:15:30;;;;;;;1.20;1.13;;;23.40;45.30;;;;;;5055151;28;20229;-80
2023/07/27 07:17:56;;;;;;;1.30;1.20;;;23.40;45.30;;;;;;5061094;28;20225;-81
2023/07/27 07:20:21;;;;;;;1.20;1.10;;;23.40;45.30;;;;;;5055719;28;20959;-80
2023/07/27 07:22:47;;;;;;;1.20;1.10;;;23.40;45.30;;;;;;5048337;28;20594;-80
2023/07/27 07:25:13;;;;;;;1.30;1.20;;;23.40;45.30;;;;;;5068321;28;20225;-80
2023/07/27 07:27:38;;;;;;;1.30;1.20;;;23.40;45.20;;;;;;5052240;28;20217;-80
2023/07/27 07:30:05;;;;;;;1.20;1.10;;;23.40;45.30;;;;;;5054959;28;20313;-80
2023/07/27 07:32:31;;;;;;;1.20;1.10;;;23.40;45.30;;;;;;5054554;28;20229;-80
2023/07/27 07:34:57;;;;;;;1.37;1.27;;;23.40;45.30;;;;;;5052563;28;20973;-81
2023/07/27 07:37:23;;;;;;;1.20;1.10;;;23.40;45.30;;;;;;5069000;28;20454;-80
2023/07/27 07:39:48;;;;;;;1.10;1.00;;;23.40;45.30;;;;;;5054439;28;20459;-80
2023/07/27 07:42:14;;;;;;;1.20;1.13;;;23.40;45.30;;;;;;5054802;28;20695;-80
2023/07/27 07:44:40;;;;;;;1.33;1.23;;;23.40;45.20;;;;;;5051773;28;20217;-80
2023/07/27 07:47:05;;;;;;;1.23;1.13;;;23.40;45.30;;;;;;5057020;28;20224;-80
2023/07/27 07:49:31;;;;;;;1.00;1.00;;;23.40;45.30;;;;;;5054946;28;20218;-80
2023/07/27 07:51:56;;;;;;;1.30;1.20;;;23.40;45.20;;;;;;5059026;28;20221;-80
2023/07/27 07:54:22;;;;;;;1.20;1.10;;;23.40;45.30;;;;;;5053928;28;20224;-80
2023/07/27 07:56:47;;;;;;;1.30;1.20;;;23.40;45.20;;;;;;5057663;28;20213;-80
2023/07/27 07:59:15;;;;;;;1.20;1.10;;;23.40;45.20;;;;;;5052498;28;20221;-80
2023/07/27 08:01:41;;;;;;;1.37;1.27;;;23.40;45.20;;;;;;5056614;28;20221;-79
2023/07/27 08:04:07;;;;;;;1.20;1.10;;;23.40;45.30;;;;;;5053708;28;20527;-80
2023/07/27 08:06:33;;;;;;;1.00;1.00;;;23.40;45.30;;;;;;5052643;28;20450;-80
2023/07/27 08:08:58;;;;;;;1.13;1.03;;;23.30;45.20;;;;;;5052666;28;20447;-80
2023/07/27 08:11:24;;;;;;;1.00;1.00;;;23.40;45.30;;;;;;5054280;28;20308;-81
2023/07/27 08:13:50;;;;;;;1.03;1.00;;;23.40;45.30;;;;;;5053111;28;20236;-79
2023/07/27 08:16:15;;;;;;;1.00;0.90;;;23.40;45.30;;;;;;5058674;28;20237;-79
2023/07/27 08:18:41;;;;;;;1.10;1.00;;;23.40;45.30;;;;;;5052218;28;20213;-79
2023/07/27 08:21:08;;;;;;;1.20;1.10;;;23.40;45.30;;;;;;5052188;28;20240;-79
2023/07/27 08:23:33;;;;;;;1.00;1.00;;;23.40;45.20;;;;;;5058960;28;20248;-80
2023/07/27 08:26:00;;;;;;;1.20;1.10;;;23.40;45.20;;;;;;5055612;28;20964;-79
2023/07/27 08:28:26;;;;;;;1.20;1.10;;;23.40;45.20;;;;;;5057568;28;20212;-79
2023/07/27 08:30:53;;;;;;;1.10;1.00;;;23.40;45.20;;;;;;5059169;28;20504;-79
2023/07/27 08:33:19;;;;;;;1.30;1.20;;;23.40;45.20;;;;;;5059355;28;20475;-80
2023/07/27 08:35:45;;;;;;;1.10;1.10;;;23.30;45.20;;;;;;5058924;28;20458;-79
2023/07/27 08:38:10;;;;;;;1.03;0.93;;;23.40;45.20;;;;;;5060258;28;20446;-79
2023/07/27 08:40:37;;;;;;;1.27;1.17;;;23.30;45.20;;;;;;5059928;28;20555;-79
2023/07/27 08:43:05;;;;;;;1.30;1.20;;;23.40;45.20;;;;;;5056412;28;20244;-79
2023/07/27 08:45:31;;;;;;;1.13;1.03;;;23.40;46.00;;;;;;5057027;28;20462;-79
2023/07/27 08:47:58;;;;;;;1.37;1.27;;;23.40;45.20;;;;;;5058031;28;20446;-79
2023/07/27 08:50:23;;;;;;;1.00;1.00;;;23.40;45.20;;;;;;5058322;28;21555;-79
2023/07/27 08:52:49;;;;;;;0.90;0.90;;;23.40;45.20;;;;;;5058355;28;20442;-79
2023/07/27 08:55:15;;;;;;;1.10;1.00;;;23.40;45.20;;;;;;5058573;28;20742;-79
2023/07/27 08:57:41;;;;;;;1.10;1.00;;;23.30;45.20;;;;;;5060565;28;20477;-79
2023/07/27 09:00:09;;;;;;;1.30;1.20;;;23.30;45.20;;;;;;5058091;28;20221;-80
2023/07/27 09:02:35;;;;;;;1.20;1.10;;;23.30;45.20;;;;;;5061486;28;20225;-79
2023/07/27 09:05:01;;;;;;;1.30;1.20;;;23.30;45.20;;;;;;5057799;28;20861;-79
2023/07/27 09:07:26;;;;;;;1.13;1.03;;;23.30;45.20;;;;;;5064829;28;20279;-80
2023/07/27 09:09:53;;;;;;;1.00;1.00;;;23.30;45.20;;;;;;5058212;28;20222;-79
2023/07/27 09:12:22;;;;;;;0.90;0.90;;;23.30;45.20;;;;;;5058500;28;20229;-79
2023/07/27 09:14:47;;;;;;;1.17;1.07;;;23.30;45.20;;;;;;5055723;28;20469;-79
2023/07/27 09:17:13;;;;;;;0.93;0.93;;;23.30;45.20;;;;;;5061703;28;20455;-79
2023/07/27 09:19:41;;;;;;;1.20;1.10;;;23.30;45.30;;;;;;5055983;28;20228;-79
2023/07/27 09:22:07;;;;;;;1.13;1.03;;;23.30;45.20;;;;;;5058339;28;20240;-80
2023/07/27 09:24:34;;;;;;;0.80;0.80;;;23.30;45.20;;;;;;5056687;28;20435;-79
2023/07/27 09:27:08;;;;;;;0.97;0.97;;;23.30;45.20;;;;;;5058186;28;20225;-80
2023/07/27 09:29:34;;;;;;;1.10;1.00;;;23.30;45.20;;;;;;5055554;28;20458;-80
2023/07/27 09:32:00;;;;;;;1.10;1.03;;;23.30;45.20;;;;;;5060530;28;20446;-80
2023/07/27 09:34:28;;;;;;;1.20;1.07;;;23.30;45.20;;;;;;5055693;28;20237;-79
2023/07/27 09:36:55;;;;;;;1.00;1.00;;;23.30;45.20;;;;;;5061565;28;20228;-79
2023/07/27 09:39:21;;;;;;;1.33;1.23;;;23.30;45.20;;;;;;5054598;28;20975;-79
2023/07/27 09:41:46;;;;;;;1.20;1.10;;;23.30;45.20;;;;;;5058105;28;20438;-79
2023/07/27 09:44:16;;;;;;;1.20;1.10;;;23.30;45.20;;;;;;5063088;28;20206;-79
2023/07/27 09:46:45;;;;;;;0.90;0.90;;;23.30;45.20;;;;;;5072619;28;20218;-79
2023/07/27 09:49:12;;;;;;;1.03;0.90;;;23.30;45.20;;;;;;5057863;28;20453;-79
2023/07/27 09:51:38;;;;;;;1.10;1.00;;;23.30;45.20;;;;;;5059078;28;20461;-79
2023/07/27 09:54:05;;;;;;;1.00;0.90;;;23.30;45.20;;;;;;5059199;28;20931;-79
2023/07/27 09:56:32;;;;;;;0.90;0.90;;;23.30;45.20;;;;;;5057598;28;20443;-79
2023/07/27 09:58:58;;;;;;;1.13;1.03;;;23.30;45.30;;;;;;5056613;28;20952;-79
2023/07/27 10:01:24;;;;;;;1.20;1.10;;;23.30;45.30;;;;;;5056523;28;20452;-79
2023/07/27 10:03:50;;;;;;;0.97;0.97;;;23.30;45.30;;;;;;5057079;28;20442;-79
2023/07/27 10:06:16;;;;;;;1.10;1.10;;;23.30;45.20;;;;;;5056024;28;20458;-79
2023/07/27 10:08:43;;;;;;;0.93;0.93;;;23.30;45.20;;;;;;5055869;28;20221;-79
2023/07/27 10:11:09;;;;;;;1.07;0.97;;;23.30;45.30;;;;;;5060947;28;20458;-78
2023/07/27 10:13:43;;;;;;;1.00;0.90;;;23.30;45.20;;;;;;5055540;28;20442;-78
2023/07/27 10:16:11;;;;;;;0.97;0.93;;;23.30;45.20;;;;;;5069461;28;20865;-78
2023/07/27 10:18:43;;;;;;;0.80;0.80;;;23.30;45.20;;;;;;5056061;28;20448;-78
2023/07/27 10:21:28;;;;;;;0.90;0.90;;;23.30;45.20;;;;;;5055742;28;20524;-78
2023/07/27 10:23:58;;;;;;;0.90;0.90;;;23.30;45.30;;;;;;5057192;28;20457;-78
2023/07/27 10:26:44;;;;;;;1.17;1.00;;;23.30;45.30;;;;;;5061642;28;20490;-78
2023/07/27 10:29:18;;;;;;;0.90;0.90;;;23.30;45.20;;;;;;5053812;28;20449;-78
2023/07/27 10:31:45;;;;;;;0.87;0.87;;;23.30;45.30;;;;;;5057776;28;20465;-77
2023/07/27 10:34:17;;;;;;;0.97;0.87;;;23.30;45.20;;;;;;5063013;28;20867;-76
2023/07/27 10:37:00;;;;;;;0.80;0.80;;;23.30;45.30;;;;;;5055170;28;20450;-77
2023/07/27 10:39:31;;;;;;;0.90;0.90;;;23.30;45.30;;;;;;5056816;28;20903;-77
2023/07/27 10:42:06;;;;;;;0.80;0.80;;;23.30;45.30;;;;;;5057587;28;20850;-77
2023/07/27 10:44:43;;;;;;;1.10;1.00;;;23.30;45.30;;;;;;5070961;28;20445;-77
2023/07/27 10:47:29;;;;;;;0.90;0.90;;;23.30;45.30;;;;;;5057489;28;20446;-77
2023/07/27 10:49:57;;;;;;;1.10;1.00;;;23.30;45.40;;;;;;5044294;28;20486;-77
2023/07/27 10:52:24;;;;;;;1.00;0.90;;;23.30;45.30;;;;;;5058459;28;20462;-76
2023/07/27 10:54:51;;;;;;;1.10;1.00;;;23.30;45.30;;;;;;5054724;28;20467;-77
2023/07/27 10:57:18;;;;;;;1.10;1.00;;;23.30;45.30;;;;;;5050067;28;20830;-77
2023/07/27 10:59:46;;;;;;;1.10;1.00;;;23.30;45.40;;;;;;5061097;28;20474;-77
2023/07/27 11:02:23;;;;;;;0.90;0.90;;;23.30;45.30;;;;;;5056350;28;20953;-77
2023/07/27 11:04:55;;;;;;;0.80;0.80;;;23.30;45.30;;;;;;5056373;28;20711;-77
2023/07/27 11:07:29;;;;;;;1.00;1.00;;;23.30;45.30;;;;;;5058400;28;21292;-77
2023/07/27 11:09:56;;;;;;;0.90;0.90;;;23.30;45.30;;;;;;5053669;28;20472;-77
2023/07/27 11:12:22;;;;;;;1.00;0.93;;;23.30;45.30;;;;;;5056276;28;20469;-77
2023/07/27 11:14:47;;;;;;;1.10;1.00;;;23.30;45.40;;;;;;5055941;28;20469;-76
2023/07/27 11:17:14;;;;;;;0.80;0.80;;;23.30;45.40;;;;;;5053188;28;20558;-76
2023/07/27 11:19:39;;;;;;;0.97;0.97;;;23.30;45.30;;;;;;5053346;28;20233;-76
2023/07/27 11:22:05;;;;;;;1.50;1.40;;;23.30;45.30;;;;;;5057328;28;20587;-78
2023/07/27 11:24:32;;;;;;;1.10;1.00;;;23.30;45.30;;;;;;5055159;28;20300;-76
2023/07/27 11:26:57;;;;;;;0.80;0.80;;;23.30;45.40;;;;;;5056270;28;20582;-76
2023/07/27 11:29:23;;;;;;;1.30;1.00;;;23.30;45.40;;;;;;5050129;28;20459;-77
2023/07/27 11:31:53;;;;;;;0.80;0.80;;;23.30;45.30;;;;;;5055646;28;20715;-77
2023/07/27 11:34:22;;;;;;;0.93;0.83;;;23.30;45.40;;;;;;5054939;28;20236;-77
2023/07/27 11:36:59;;;;;;;0.90;0.90;;;23.30;45.40;;;;;;5051272;28;20455;-78
2023/07/27 11:39:26;;;;;;;0.90;0.90;;;23.30;45.30;;;;;;5052122;28;20504;-78
2023/07/27 11:41:52;;;;;;;1.13;1.03;;;23.30;45.40;;;;;;5056146;28;20450;-77
2023/07/27 11:44:22;;;;;;;0.83;0.83;;;23.30;45.40;;;;;;5055427;28;20455;-77
2023/07/27 11:46:51;;;;;;;1.03;0.97;;;23.30;45.40;;;;;;5055812;28;20996;-76
2023/07/27 11:49:20;;;;;;;0.97;0.90;;;23.30;45.40;;;;;;5059510;28;20485;-76
2023/07/27 11:51:46;;;;;;;0.90;0.73;;;23.30;45.40;;;;;;5058143;28;20481;-75
2023/07/27 11:54:24;;;;;;;1.00;1.00;;;23.30;45.40;;;;;;5056622;28;20473;-77
2023/07/27 11:56:55;;;;;;;1.10;1.00;;;23.30;45.40;;;;;;5055532;28;20500;-77
2023/07/27 11:59:21;;;;;;;0.80;0.80;;;23.30;45.50;;;;;;5053067;28;20455;-77
2023/07/27 12:01:49;;;;;;;1.10;1.00;;;23.30;45.40;;;;;;5056332;28;20457;-76
2023/07/27 12:04:14;;;;;;;1.20;1.10;;;23.30;45.40;;;;;;5060180;28;20450;-76
2023/07/27 12:06:42;;;;;;;0.80;0.80;;;23.30;45.40;;;;;;5058690;28;20447;-77
2023/07/27 12:09:08;;;;;;;1.07;0.97;;;23.30;45.40;;;;;;5062225;28;20700;-76
2023/07/27 12:11:34;;;;;;;0.80;0.80;;;23.30;45.40;;;;;;5060366;28;20442;-76
2023/07/27 12:14:07;;;;;;;1.20;1.10;;;23.30;45.40;;;;;;5059792;28;20517;-76
2023/07/27 12:16:40;;;;;;;1.03;0.97;;;23.30;45.40;;;;;;5058196;28;20290;-76
2023/07/27 12:19:07;;;;;;;0.77;0.77;;;23.30;45.40;;;;;;5058039;28;20419;-76
2023/07/27 12:21:36;;;;;;;1.10;1.00;;;23.30;45.40;;;;;;5056399;28;20446;-76
2023/07/27 12:24:06;;;;;;;1.63;0.90;;;23.30;45.40;;;;;;5059766;28;20443;-76
2023/07/27 12:26:32;;;;;;;0.80;0.80;;;23.30;45.40;;;;;;5057344;28;20484;-77
2023/07/27 12:28:57;;;;;;;0.80;0.80;;;23.30;45.40;;;;;;5057515;28;20515;-76
2023/07/27 12:31:23;;;;;;;1.10;1.00;;;23.30;45.40;;;;;;5056375;28;20309;-77
2023/07/27 12:33:48;;;;;;;0.80;0.80;;;23.30;45.40;;;;;;5056938;28;20237;-76
2023/07/27 12:36:14;;;;;;;1.07;0.97;;;23.30;45.50;;;;;;5056784;28;20268;-76
2023/07/27 12:38:39;;;;;;;1.10;1.00;;;23.30;45.40;;;;;;5061135;28;20227;-76
2023/07/27 12:41:05;;;;;;;0.97;0.97;;;23.30;45.40;;;;;;5057261;28;20220;-76
2023/07/27 12:43:31;;;;;;;0.90;0.90;;;23.30;45.40;;;;;;5056323;28;20555;-76
2023/07/27 12:45:57;;;;;;;0.80;0.80;;;23.30;45.40;;;;;;5056021;28;20220;-77
2023/07/27 12:48:22;;;;;;;0.80;0.80;;;23.30;45.50;;;;;;5057931;28;20222;-76
2023/07/27 12:50:48;;;;;;;0.97;0.97;;;23.30;45.40;;;;;;5058668;28;20715;-76
2023/07/27 12:53:13;;;;;;;0.97;0.90;;;23.30;45.40;;;;;;5056232;28;20233;-76